sensor_id;sensor_type;location;lat;lon;timestamp;P1;durP1;ratioP1;P2;durP2;ratioP2
71202;SDS011;58929;47.490;19.090;2023-08-30T00:00:49;1.40;;;0.93;;
71202;SDS011;58929;47.490;19.090;2023-08-30T00:03:17;1.23;;;0.75;;
71202;SDS011;58929;47.490;19.090;2023-08-30T00:05:46;1.90;;;0.93;;
71202;SDS011;58929;47.490;19.090;2023-08-30T00:08:14;0.68;;;0.68;;
71202;SDS011;58929;47.490;19.090;2023-08-30T00:10:45;0.80;;;0.75;;
71202;SDS011;58929;47.490;19.090;2023-08-30T00:13:13;1.33;;;0.80;;
71202;SDS011;58929;47.490;19.090;2023-08-30T00:15:41;1.05;;;0.85;;
71202;SDS011;58929;47.490;19.090;2023-08-30T00:18:09;6.07;;;0.90;;
71202;SDS011;58929;47.490;19.090;2023-08-30T00:20:37;0.73;;;0.60;;
71202;SDS011;58929;47.490;19.090;2023-08-30T00:23:07;1.58;;;0.82;;
71202;SDS011;58929;47.490;19.090;2023-08-30T00:25:35;5.50;;;1.17;;
71202;SDS011;58929;47.490;19.090;2023-08-30T00:28:03;1.10;;;0.63;;
71202;SDS011;58929;47.490;19.090;2023-08-30T00:30:32;0.90;;;0.90;;
71202;SDS011;58929;47.490;19.090;2023-08-30T00:33:02;1.88;;;0.82;;
71202;SDS011;58929;47.490;19.090;2023-08-30T00:35:31;3.78;;;0.90;;
71202;SDS011;58929;47.490;19.090;2023-08-30T00:37:58;1.77;;;1.00;;
71202;SDS011;58929;47.490;19.090;2023-08-30T00:40:28;2.97;;;0.90;;
71202;SDS011;58929;47.490;19.090;2023-08-30T00:42:56;2.85;;;1.08;;
71202;SDS011;58929;47.490;19.090;2023-08-30T00:45:25;1.45;;;0.95;;
71202;SDS011;58929;47.490;19.090;2023-08-30T00:47:53;0.93;;;0.82;;
71202;SDS011;58929;47.490;19.090;2023-08-30T00:50:23;2.63;;;1.40;;
71202;SDS011;58929;47.490;19.090;2023-08-30T00:52:51;3.72;;;1.05;;
71202;SDS011;58929;47.490;19.090;2023-08-30T00:55:19;2.65;;;1.30;;
71202;SDS011;58929;47.490;19.090;2023-08-30T00:57:49;1.45;;;1.10;;
71202;SDS011;58929;47.490;19.090;2023-08-30T01:00:17;2.25;;;1.00;;
71202;SDS011;58929;47.490;19.090;2023-08-30T01:02:46;3.20;;;1.10;;
71202;SDS011;58929;47.490;19.090;2023-08-30T01:05:14;2.10;;;0.98;;
71202;SDS011;58929;47.490;19.090;2023-08-30T01:07:42;1.95;;;1.00;;
71202;SDS011;58929;47.490;19.090;2023-08-30T01:10:10;2.33;;;1.23;;
71202;SDS011;58929;47.490;19.090;2023-08-30T01:12:40;2.17;;;1.00;;
71202;SDS011;58929;47.490;19.090;2023-08-30T01:15:13;2.40;;;1.10;;
71202;SDS011;58929;47.490;19.090;2023-08-30T01:17:43;2.75;;;1.65;;
71202;SDS011;58929;47.490;19.090;2023-08-30T01:20:12;1.45;;;1.20;;
71202;SDS011;58929;47.490;19.090;2023-08-30T01:22:45;2.08;;;1.13;;
71202;SDS011;58929;47.490;19.090;2023-08-30T01:25:19;1.60;;;1.05;;
71202;SDS011;58929;47.490;19.090;2023-08-30T01:27:53;11.57;;;1.25;;
71202;SDS011;58929;47.490;19.090;2023-08-30T01:30:22;2.13;;;1.05;;
71202;SDS011;58929;47.490;19.090;2023-08-30T01:32:53;4.28;;;1.40;;
71202;SDS011;58929;47.490;19.090;2023-08-30T01:35:23;0.70;;;0.70;;
71202;SDS011;58929;47.490;19.090;2023-08-30T01:37:52;2.97;;;1.38;;
71202;SDS011;58929;47.490;19.090;2023-08-30T01:40:20;2.35;;;0.95;;
71202;SDS011;58929;47.490;19.090;2023-08-30T01:42:48;2.20;;;1.30;;
71202;SDS011;58929;47.490;19.090;2023-08-30T01:45:18;1.23;;;0.98;;
71202;SDS011;58929;47.490;19.090;2023-08-30T01:47:47;3.53;;;1.33;;
71202;SDS011;58929;47.490;19.090;2023-08-30T01:50:15;2.35;;;1.25;;
71202;SDS011;58929;47.490;19.090;2023-08-30T01:52:44;4.13;;;1.20;;
71202;SDS011;58929;47.490;19.090;2023-08-30T01:55:13;4.13;;;1.40;;
71202;SDS011;58929;47.490;19.090;2023-08-30T01:57:41;1.42;;;1.30;;
71202;SDS011;58929;47.490;19.090;2023-08-30T02:00:10;2.58;;;1.40;;
71202;SDS011;58929;47.490;19.090;2023-08-30T02:02:45;3.13;;;1.23;;
71202;SDS011;58929;47.490;19.090;2023-08-30T02:05:13;3.45;;;1.77;;
71202;SDS011;58929;47.490;19.090;2023-08-30T02:07:43;1.35;;;1.17;;
71202;SDS011;58929;47.490;19.090;2023-08-30T02:10:15;4.07;;;1.20;;
71202;SDS011;58929;47.490;19.090;2023-08-30T02:12:46;2.90;;;1.52;;
71202;SDS011;58929;47.490;19.090;2023-08-30T02:15:15;2.03;;;1.50;;
71202;SDS011;58929;47.490;19.090;2023-08-30T02:17:45;1.92;;;1.48;;
71202;SDS011;58929;47.490;19.090;2023-08-30T02:20:14;4.50;;;1.63;;
71202;SDS011;58929;47.490;19.090;2023-08-30T02:22:42;1.70;;;1.58;;
71202;SDS011;58929;47.490;19.090;2023-08-30T02:25:10;2.47;;;1.90;;
71202;SDS011;58929;47.490;19.090;2023-08-30T02:27:38;2.53;;;2.20;;
71202;SDS011;58929;47.490;19.090;2023-08-30T02:30:07;3.33;;;1.77;;
71202;SDS011;58929;47.490;19.090;2023-08-30T02:32:35;3.85;;;2.55;;
71202;SDS011;58929;47.490;19.090;2023-08-30T02:35:05;3.03;;;2.30;;
71202;SDS011;58929;47.490;19.090;2023-08-30T02:37:33;4.50;;;2.22;;
71202;SDS011;58929;47.490;19.090;2023-08-30T02:40:01;3.17;;;2.30;;
71202;SDS011;58929;47.490;19.090;2023-08-30T02:42:29;2.85;;;2.28;;
71202;SDS011;58929;47.490;19.090;2023-08-30T02:44:57;4.07;;;2.60;;
71202;SDS011;58929;47.490;19.090;2023-08-30T02:47:25;8.57;;;2.58;;
71202;SDS011;58929;47.490;19.090;2023-08-30T02:49:53;3.45;;;2.47;;
71202;SDS011;58929;47.490;19.090;2023-08-30T02:52:22;8.63;;;2.55;;
71202;SDS011;58929;47.490;19.090;2023-08-30T02:54:50;3.90;;;2.60;;
71202;SDS011;58929;47.490;19.090;2023-08-30T02:57:18;3.92;;;3.00;;
71202;SDS011;58929;47.490;19.090;2023-08-30T02:59:46;4.40;;;2.70;;
71202;SDS011;58929;47.490;19.090;2023-08-30T03:02:14;4.07;;;3.00;;
71202;SDS011;58929;47.490;19.090;2023-08-30T03:04:42;4.22;;;3.33;;
71202;SDS011;58929;47.490;19.090;2023-08-30T03:07:11;5.25;;;3.58;;
71202;SDS011;58929;47.490;19.090;2023-08-30T03:09:40;5.25;;;3.72;;
71202;SDS011;58929;47.490;19.090;2023-08-30T03:12:08;4.25;;;2.80;;
71202;SDS011;58929;47.490;19.090;2023-08-30T03:14:36;5.25;;;3.22;;
71202;SDS011;58929;47.490;19.090;2023-08-30T03:17:05;11.18;;;4.43;;
71202;SDS011;58929;47.490;19.090;2023-08-30T03:19:33;4.75;;;3.35;;
71202;SDS011;58929;47.490;19.090;2023-08-30T03:22:02;4.32;;;3.33;;
71202;SDS011;58929;47.490;19.090;2023-08-30T03:24:30;3.92;;;3.10;;
71202;SDS011;58929;47.490;19.090;2023-08-30T03:26:59;6.10;;;3.47;;
71202;SDS011;58929;47.490;19.090;2023-08-30T03:29:28;6.50;;;4.10;;
71202;SDS011;58929;47.490;19.090;2023-08-30T03:31:56;4.55;;;3.55;;
71202;SDS011;58929;47.490;19.090;2023-08-30T03:34:25;5.18;;;3.08;;
71202;SDS011;58929;47.490;19.090;2023-08-30T03:36:53;5.40;;;3.35;;
71202;SDS011;58929;47.490;19.090;2023-08-30T03:39:21;5.68;;;3.78;;
71202;SDS011;58929;47.490;19.090;2023-08-30T03:41:52;6.13;;;4.03;;
71202;SDS011;58929;47.490;19.090;2023-08-30T03:44:23;5.25;;;3.67;;
71202;SDS011;58929;47.490;19.090;2023-08-30T03:46:51;6.05;;;4.10;;
71202;SDS011;58929;47.490;19.090;2023-08-30T03:49:20;7.15;;;3.60;;
71202;SDS011;58929;47.490;19.090;2023-08-30T03:51:49;5.68;;;3.97;;
71202;SDS011;58929;47.490;19.090;2023-08-30T03:54:17;5.22;;;3.95;;
71202;SDS011;58929;47.490;19.090;2023-08-30T03:56:45;6.40;;;4.28;;
71202;SDS011;58929;47.490;19.090;2023-08-30T03:59:13;7.25;;;3.28;;
71202;SDS011;58929;47.490;19.090;2023-08-30T04:01:43;6.53;;;4.22;;
71202;SDS011;58929;47.490;19.090;2023-08-30T04:04:11;5.03;;;3.35;;
71202;SDS011;58929;47.490;19.090;2023-08-30T04:06:40;9.70;;;4.55;;
71202;SDS011;58929;47.490;19.090;2023-08-30T04:09:08;5.57;;;3.80;;
71202;SDS011;58929;47.490;19.090;2023-08-30T04:11:36;7.20;;;3.47;;
71202;SDS011;58929;47.490;19.090;2023-08-30T04:14:04;6.00;;;3.47;;
71202;SDS011;58929;47.490;19.090;2023-08-30T04:16:34;9.45;;;3.88;;
71202;SDS011;58929;47.490;19.090;2023-08-30T04:19:03;5.35;;;3.53;;
71202;SDS011;58929;47.490;19.090;2023-08-30T04:21:31;6.30;;;3.65;;
71202;SDS011;58929;47.490;19.090;2023-08-30T04:23:59;5.80;;;3.53;;
71202;SDS011;58929;47.490;19.090;2023-08-30T04:26:27;4.38;;;3.22;;
71202;SDS011;58929;47.490;19.090;2023-08-30T04:28:55;8.45;;;3.72;;
71202;SDS011;58929;47.490;19.090;2023-08-30T04:31:24;7.72;;;4.40;;
71202;SDS011;58929;47.490;19.090;2023-08-30T04:33:52;7.97;;;3.72;;
71202;SDS011;58929;47.490;19.090;2023-08-30T04:36:23;5.55;;;4.13;;
71202;SDS011;58929;47.490;19.090;2023-08-30T04:38:51;7.50;;;4.82;;
71202;SDS011;58929;47.490;19.090;2023-08-30T04:41:29;7.13;;;4.50;;
71202;SDS011;58929;47.490;19.090;2023-08-30T04:44:00;7.82;;;4.28;;
71202;SDS011;58929;47.490;19.090;2023-08-30T04:46:28;6.95;;;4.70;;
71202;SDS011;58929;47.490;19.090;2023-08-30T04:48:56;10.77;;;5.90;;
71202;SDS011;58929;47.490;19.090;2023-08-30T04:51:26;8.68;;;4.72;;
71202;SDS011;58929;47.490;19.090;2023-08-30T04:53:57;7.78;;;4.97;;
71202;SDS011;58929;47.490;19.090;2023-08-30T04:56:29;8.38;;;4.63;;
71202;SDS011;58929;47.490;19.090;2023-08-30T04:58:57;6.90;;;4.25;;
71202;SDS011;58929;47.490;19.090;2023-08-30T05:01:25;8.93;;;4.00;;
71202;SDS011;58929;47.490;19.090;2023-08-30T05:03:56;6.53;;;4.50;;
71202;SDS011;58929;47.490;19.090;2023-08-30T05:06:25;12.75;;;4.28;;
71202;SDS011;58929;47.490;19.090;2023-08-30T05:08:54;6.43;;;4.25;;
71202;SDS011;58929;47.490;19.090;2023-08-30T05:11:22;8.35;;;4.35;;
71202;SDS011;58929;47.490;19.090;2023-08-30T05:13:50;7.90;;;4.82;;
71202;SDS011;58929;47.490;19.090;2023-08-30T05:16:18;12.60;;;5.35;;
71202;SDS011;58929;47.490;19.090;2023-08-30T05:18:47;9.05;;;5.97;;
71202;SDS011;58929;47.490;19.090;2023-08-30T05:21:15;12.63;;;5.82;;
71202;SDS011;58929;47.490;19.090;2023-08-30T05:23:45;9.80;;;6.03;;
71202;SDS011;58929;47.490;19.090;2023-08-30T05:26:14;12.23;;;5.30;;
71202;SDS011;58929;47.490;19.090;2023-08-30T05:28:43;9.43;;;5.60;;
71202;SDS011;58929;47.490;19.090;2023-08-30T05:31:12;9.57;;;5.75;;
71202;SDS011;58929;47.490;19.090;2023-08-30T05:34:09;14.52;;;6.60;;
71202;SDS011;58929;47.490;19.090;2023-08-30T05:37:00;10.43;;;5.68;;
71202;SDS011;58929;47.490;19.090;2023-08-30T05:39:57;10.50;;;6.43;;
71202;SDS011;58929;47.490;19.090;2023-08-30T05:42:25;11.02;;;6.32;;
71202;SDS011;58929;47.490;19.090;2023-08-30T05:44:55;15.45;;;5.93;;
71202;SDS011;58929;47.490;19.090;2023-08-30T05:47:23;12.95;;;6.78;;
71202;SDS011;58929;47.490;19.090;2023-08-30T05:49:51;18.30;;;9.20;;
71202;SDS011;58929;47.490;19.090;2023-08-30T05:52:19;21.83;;;9.10;;
71202;SDS011;58929;47.490;19.090;2023-08-30T05:54:47;13.18;;;7.25;;
71202;SDS011;58929;47.490;19.090;2023-08-30T05:57:16;16.25;;;7.18;;
71202;SDS011;58929;47.490;19.090;2023-08-30T05:59:44;10.70;;;5.78;;
71202;SDS011;58929;47.490;19.090;2023-08-30T06:02:12;9.80;;;5.65;;
71202;SDS011;58929;47.490;19.090;2023-08-30T06:04:40;8.38;;;4.82;;
71202;SDS011;58929;47.490;19.090;2023-08-30T06:07:08;9.90;;;6.25;;
71202;SDS011;58929;47.490;19.090;2023-08-30T06:09:36;9.77;;;6.22;;
71202;SDS011;58929;47.490;19.090;2023-08-30T06:12:05;11.95;;;5.32;;
71202;SDS011;58929;47.490;19.090;2023-08-30T06:14:34;9.18;;;5.38;;
71202;SDS011;58929;47.490;19.090;2023-08-30T06:17:02;10.25;;;5.82;;
71202;SDS011;58929;47.490;19.090;2023-08-30T06:19:32;10.68;;;5.43;;
71202;SDS011;58929;47.490;19.090;2023-08-30T06:22:00;10.30;;;6.13;;
71202;SDS011;58929;47.490;19.090;2023-08-30T06:24:28;10.15;;;5.63;;
71202;SDS011;58929;47.490;19.090;2023-08-30T06:26:56;8.00;;;5.63;;
71202;SDS011;58929;47.490;19.090;2023-08-30T06:29:24;11.38;;;6.25;;
71202;SDS011;58929;47.490;19.090;2023-08-30T06:31:54;8.50;;;5.22;;
71202;SDS011;58929;47.490;19.090;2023-08-30T06:34:22;9.40;;;5.50;;
71202;SDS011;58929;47.490;19.090;2023-08-30T06:36:50;11.75;;;5.72;;
71202;SDS011;58929;47.490;19.090;2023-08-30T06:39:18;13.73;;;6.05;;
71202;SDS011;58929;47.490;19.090;2023-08-30T06:41:46;10.77;;;5.40;;
71202;SDS011;58929;47.490;19.090;2023-08-30T06:44:14;9.07;;;5.43;;
71202;SDS011;58929;47.490;19.090;2023-08-30T06:46:42;13.38;;;6.20;;
71202;SDS011;58929;47.490;19.090;2023-08-30T06:49:11;10.02;;;5.13;;
71202;SDS011;58929;47.490;19.090;2023-08-30T06:51:39;9.77;;;5.35;;
71202;SDS011;58929;47.490;19.090;2023-08-30T06:54:07;8.32;;;5.00;;
71202;SDS011;58929;47.490;19.090;2023-08-30T06:56:35;10.93;;;6.28;;
71202;SDS011;58929;47.490;19.090;2023-08-30T06:59:03;9.25;;;5.45;;
71202;SDS011;58929;47.490;19.090;2023-08-30T07:01:32;33.30;;;16.58;;
71202;SDS011;58929;47.490;19.090;2023-08-30T07:04:02;8.93;;;5.65;;
71202;SDS011;58929;47.490;19.090;2023-08-30T07:06:31;16.13;;;8.65;;
71202;SDS011;58929;47.490;19.090;2023-08-30T07:08:59;11.55;;;6.85;;
71202;SDS011;58929;47.490;19.090;2023-08-30T07:11:29;15.85;;;6.65;;
71202;SDS011;58929;47.490;19.090;2023-08-30T07:14:00;12.18;;;5.93;;
71202;SDS011;58929;47.490;19.090;2023-08-30T07:16:28;11.73;;;6.60;;
71202;SDS011;58929;47.490;19.090;2023-08-30T07:18:58;10.88;;;5.45;;
71202;SDS011;58929;47.490;19.090;2023-08-30T07:21:26;7.55;;;5.55;;
71202;SDS011;58929;47.490;19.090;2023-08-30T07:23:56;14.20;;;5.95;;
71202;SDS011;58929;47.490;19.090;2023-08-30T07:26:24;14.00;;;6.22;;
71202;SDS011;58929;47.490;19.090;2023-08-30T07:28:52;10.57;;;5.45;;
71202;SDS011;58929;47.490;19.090;2023-08-30T07:31:20;8.05;;;5.35;;
71202;SDS011;58929;47.490;19.090;2023-08-30T07:33:48;12.55;;;6.65;;
71202;SDS011;58929;47.490;19.090;2023-08-30T07:36:16;9.43;;;6.20;;
71202;SDS011;58929;47.490;19.090;2023-08-30T07:38:44;11.80;;;6.32;;
71202;SDS011;58929;47.490;19.090;2023-08-30T07:41:14;10.25;;;6.78;;
71202;SDS011;58929;47.490;19.090;2023-08-30T07:43:42;9.80;;;5.75;;
71202;SDS011;58929;47.490;19.090;2023-08-30T07:46:10;12.18;;;6.00;;
71202;SDS011;58929;47.490;19.090;2023-08-30T07:48:38;9.98;;;5.38;;
71202;SDS011;58929;47.490;19.090;2023-08-30T07:51:06;18.90;;;10.00;;
71202;SDS011;58929;47.490;19.090;2023-08-30T07:53:34;10.25;;;5.90;;
71202;SDS011;58929;47.490;19.090;2023-08-30T07:56:02;9.32;;;5.90;;
71202;SDS011;58929;47.490;19.090;2023-08-30T07:58:31;9.10;;;6.20;;
71202;SDS011;58929;47.490;19.090;2023-08-30T08:00:59;10.77;;;7.07;;
71202;SDS011;58929;47.490;19.090;2023-08-30T08:03:27;10.90;;;6.57;;
71202;SDS011;58929;47.490;19.090;2023-08-30T08:05:57;8.55;;;5.80;;
71202;SDS011;58929;47.490;19.090;2023-08-30T08:08:25;12.77;;;6.85;;
71202;SDS011;58929;47.490;19.090;2023-08-30T08:10:54;9.05;;;6.35;;
71202;SDS011;58929;47.490;19.090;2023-08-30T08:13:22;9.38;;;6.18;;
71202;SDS011;58929;47.490;19.090;2023-08-30T08:15:52;13.73;;;6.40;;
71202;SDS011;58929;47.490;19.090;2023-08-30T08:18:19;12.35;;;6.30;;
71202;SDS011;58929;47.490;19.090;2023-08-30T08:20:47;8.13;;;5.75;;
71202;SDS011;58929;47.490;19.090;2023-08-30T08:23:15;9.30;;;5.88;;
71202;SDS011;58929;47.490;19.090;2023-08-30T08:25:44;8.23;;;5.25;;
71202;SDS011;58929;47.490;19.090;2023-08-30T08:28:12;8.25;;;5.00;;
71202;SDS011;58929;47.490;19.090;2023-08-30T08:30:40;8.90;;;6.47;;
71202;SDS011;58929;47.490;19.090;2023-08-30T08:33:10;11.63;;;6.60;;
71202;SDS011;58929;47.490;19.090;2023-08-30T08:35:38;10.75;;;6.45;;
71202;SDS011;58929;47.490;19.090;2023-08-30T08:38:06;13.10;;;6.68;;
71202;SDS011;58929;47.490;19.090;2023-08-30T08:40:36;7.75;;;5.45;;
71202;SDS011;58929;47.490;19.090;2023-08-30T08:43:05;9.20;;;5.45;;
71202;SDS011;58929;47.490;19.090;2023-08-30T08:45:34;8.98;;;5.43;;
71202;SDS011;58929;47.490;19.090;2023-08-30T08:48:02;8.38;;;5.72;;
71202;SDS011;58929;47.490;19.090;2023-08-30T08:50:32;7.90;;;5.85;;
71202;SDS011;58929;47.490;19.090;2023-08-30T08:53:02;13.75;;;7.82;;
71202;SDS011;58929;47.490;19.090;2023-08-30T08:55:30;16.25;;;7.32;;
71202;SDS011;58929;47.490;19.090;2023-08-30T08:57:58;10.02;;;5.50;;
71202;SDS011;58929;47.490;19.090;2023-08-30T09:00:26;9.68;;;5.88;;
71202;SDS011;58929;47.490;19.090;2023-08-30T09:02:54;7.05;;;4.88;;
71202;SDS011;58929;47.490;19.090;2023-08-30T09:05:23;13.35;;;6.25;;
71202;SDS011;58929;47.490;19.090;2023-08-30T09:07:53;13.93;;;5.28;;
71202;SDS011;58929;47.490;19.090;2023-08-30T09:10:22;8.50;;;5.07;;
71202;SDS011;58929;47.490;19.090;2023-08-30T09:12:50;9.02;;;5.63;;
71202;SDS011;58929;47.490;19.090;2023-08-30T09:15:18;9.35;;;4.85;;
71202;SDS011;58929;47.490;19.090;2023-08-30T09:17:47;9.90;;;6.30;;
71202;SDS011;58929;47.490;19.090;2023-08-30T09:20:15;8.60;;;5.50;;
71202;SDS011;58929;47.490;19.090;2023-08-30T09:22:45;8.80;;;5.50;;
71202;SDS011;58929;47.490;19.090;2023-08-30T09:25:23;9.23;;;5.82;;
71202;SDS011;58929;47.490;19.090;2023-08-30T09:27:51;8.52;;;5.22;;
71202;SDS011;58929;47.490;19.090;2023-08-30T09:30:21;6.50;;;4.72;;
71202;SDS011;58929;47.490;19.090;2023-08-30T09:32:49;8.27;;;5.13;;
71202;SDS011;58929;47.490;19.090;2023-08-30T09:35:17;8.48;;;4.90;;
71202;SDS011;58929;47.490;19.090;2023-08-30T09:37:45;7.82;;;4.30;;
71202;SDS011;58929;47.490;19.090;2023-08-30T09:40:19;13.50;;;5.75;;
71202;SDS011;58929;47.490;19.090;2023-08-30T09:42:47;13.60;;;5.18;;
71202;SDS011;58929;47.490;19.090;2023-08-30T09:45:35;12.05;;;4.53;;
71202;SDS011;58929;47.490;19.090;2023-08-30T09:48:04;7.70;;;4.50;;
71202;SDS011;58929;47.490;19.090;2023-08-30T09:50:33;7.70;;;5.10;;
71202;SDS011;58929;47.490;19.090;2023-08-30T09:53:01;11.85;;;4.57;;
71202;SDS011;58929;47.490;19.090;2023-08-30T09:55:32;9.20;;;5.57;;
71202;SDS011;58929;47.490;19.090;2023-08-30T09:58:01;7.00;;;4.55;;
71202;SDS011;58929;47.490;19.090;2023-08-30T10:00:30;7.85;;;5.57;;
71202;SDS011;58929;47.490;19.090;2023-08-30T10:03:01;8.25;;;5.05;;
71202;SDS011;58929;47.490;19.090;2023-08-30T10:05:50;12.82;;;6.05;;
71202;SDS011;58929;47.490;19.090;2023-08-30T10:08:18;8.10;;;4.95;;
71202;SDS011;58929;47.490;19.090;2023-08-30T10:10:48;8.50;;;4.72;;
71202;SDS011;58929;47.490;19.090;2023-08-30T10:13:16;9.00;;;5.07;;
71202;SDS011;58929;47.490;19.090;2023-08-30T10:15:47;6.72;;;4.43;;
71202;SDS011;58929;47.490;19.090;2023-08-30T10:18:18;7.88;;;4.32;;
71202;SDS011;58929;47.490;19.090;2023-08-30T10:20:47;8.88;;;4.03;;
71202;SDS011;58929;47.490;19.090;2023-08-30T10:23:17;6.95;;;4.78;;
71202;SDS011;58929;47.490;19.090;2023-08-30T10:25:45;8.18;;;4.13;;
71202;SDS011;58929;47.490;19.090;2023-08-30T10:28:17;8.93;;;5.05;;
71202;SDS011;58929;47.490;19.090;2023-08-30T10:30:47;12.07;;;4.70;;
71202;SDS011;58929;47.490;19.090;2023-08-30T10:33:15;8.68;;;4.53;;
71202;SDS011;58929;47.490;19.090;2023-08-30T10:35:48;7.05;;;4.03;;
71202;SDS011;58929;47.490;19.090;2023-08-30T10:38:24;7.38;;;4.00;;
71202;SDS011;58929;47.490;19.090;2023-08-30T10:40:53;6.20;;;3.85;;
71202;SDS011;58929;47.490;19.090;2023-08-30T10:43:33;7.32;;;3.80;;
71202;SDS011;58929;47.490;19.090;2023-08-30T10:46:01;6.82;;;3.65;;
71202;SDS011;58929;47.490;19.090;2023-08-30T10:48:36;6.70;;;4.07;;
71202;SDS011;58929;47.490;19.090;2023-08-30T10:51:06;6.10;;;3.22;;
71202;SDS011;58929;47.490;19.090;2023-08-30T10:53:43;6.15;;;3.72;;
71202;SDS011;58929;47.490;19.090;2023-08-30T10:56:11;5.95;;;4.35;;
71202;SDS011;58929;47.490;19.090;2023-08-30T10:58:44;6.20;;;3.40;;
71202;SDS011;58929;47.490;19.090;2023-08-30T11:01:12;4.50;;;2.97;;
71202;SDS011;58929;47.490;19.090;2023-08-30T11:03:40;9.43;;;3.78;;
71202;SDS011;58929;47.490;19.090;2023-08-30T11:06:13;8.13;;;3.65;;
71202;SDS011;58929;47.490;19.090;2023-08-30T11:08:41;5.25;;;3.33;;
71202;SDS011;58929;47.490;19.090;2023-08-30T11:11:10;6.95;;;3.72;;
71202;SDS011;58929;47.490;19.090;2023-08-30T11:13:40;7.40;;;3.78;;
71202;SDS011;58929;47.490;19.090;2023-08-30T11:16:09;6.13;;;3.40;;
71202;SDS011;58929;47.490;19.090;2023-08-30T11:18:38;5.82;;;3.17;;
71202;SDS011;58929;47.490;19.090;2023-08-30T11:21:08;4.10;;;2.60;;
71202;SDS011;58929;47.490;19.090;2023-08-30T11:23:38;4.25;;;3.10;;
71202;SDS011;58929;47.490;19.090;2023-08-30T11:26:06;4.95;;;2.92;;
71202;SDS011;58929;47.490;19.090;2023-08-30T11:28:34;4.97;;;3.22;;
71202;SDS011;58929;47.490;19.090;2023-08-30T11:31:03;5.82;;;2.75;;
71202;SDS011;58929;47.490;19.090;2023-08-30T11:33:32;5.40;;;2.35;;
71202;SDS011;58929;47.490;19.090;2023-08-30T11:36:00;3.67;;;2.70;;
71202;SDS011;58929;47.490;19.090;2023-08-30T11:38:28;9.43;;;5.60;;
71202;SDS011;58929;47.490;19.090;2023-08-30T11:40:56;5.72;;;3.72;;
71202;SDS011;58929;47.490;19.090;2023-08-30T12:05:43;7.30;;;2.30;;
71202;SDS011;58929;47.490;19.090;2023-08-30T12:08:17;3.72;;;2.28;;
71202;SDS011;58929;47.490;19.090;2023-08-30T12:10:45;4.30;;;2.10;;
71202;SDS011;58929;47.490;19.090;2023-08-30T12:13:23;2.88;;;2.17;;
71202;SDS011;58929;47.490;19.090;2023-08-30T12:15:51;7.63;;;2.15;;
71202;SDS011;58929;47.490;19.090;2023-08-30T12:18:22;3.75;;;1.88;;
71202;SDS011;58929;47.490;19.090;2023-08-30T12:20:57;5.55;;;2.22;;
71202;SDS011;58929;47.490;19.090;2023-08-30T12:23:25;6.25;;;3.03;;
71202;SDS011;58929;47.490;19.090;2023-08-30T12:25:57;7.05;;;3.05;;
71202;SDS011;58929;47.490;19.090;2023-08-30T12:28:25;6.95;;;3.38;;
71202;SDS011;58929;47.490;19.090;2023-08-30T12:30:53;5.05;;;3.17;;
71202;SDS011;58929;47.490;19.090;2023-08-30T12:33:21;3.17;;;2.30;;
71202;SDS011;58929;47.490;19.090;2023-08-30T12:35:52;6.03;;;3.30;;
71202;SDS011;58929;47.490;19.090;2023-08-30T12:38:21;3.50;;;2.40;;
71202;SDS011;58929;47.490;19.090;2023-08-30T12:40:49;5.55;;;2.72;;
71202;SDS011;58929;47.490;19.090;2023-08-30T12:43:18;5.00;;;2.13;;
71202;SDS011;58929;47.490;19.090;2023-08-30T12:45:47;7.78;;;2.60;;
71202;SDS011;58929;47.490;19.090;2023-08-30T12:48:16;2.42;;;2.05;;
71202;SDS011;58929;47.490;19.090;2023-08-30T12:50:44;5.45;;;2.33;;
71202;SDS011;58929;47.490;19.090;2023-08-30T12:53:13;3.60;;;2.30;;
71202;SDS011;58929;47.490;19.090;2023-08-30T12:55:45;2.40;;;2.08;;
71202;SDS011;58929;47.490;19.090;2023-08-30T12:58:13;6.55;;;2.75;;
71202;SDS011;58929;47.490;19.090;2023-08-30T13:00:41;4.32;;;2.95;;
71202;SDS011;58929;47.490;19.090;2023-08-30T13:03:09;5.10;;;2.47;;
71202;SDS011;58929;47.490;19.090;2023-08-30T13:05:38;3.30;;;2.13;;
71202;SDS011;58929;47.490;19.090;2023-08-30T13:08:06;7.95;;;4.15;;
71202;SDS011;58929;47.490;19.090;2023-08-30T13:10:34;5.32;;;2.47;;
71202;SDS011;58929;47.490;19.090;2023-08-30T13:13:03;2.88;;;2.10;;
71202;SDS011;58929;47.490;19.090;2023-08-30T13:15:31;9.52;;;2.78;;
71202;SDS011;58929;47.490;19.090;2023-08-30T13:17:59;6.53;;;2.47;;
71202;SDS011;58929;47.490;19.090;2023-08-30T13:20:29;2.45;;;2.13;;
71202;SDS011;58929;47.490;19.090;2023-08-30T13:22:56;7.75;;;2.08;;
71202;SDS011;58929;47.490;19.090;2023-08-30T13:25:24;2.33;;;2.10;;
71202;SDS011;58929;47.490;19.090;2023-08-30T13:27:53;2.90;;;2.20;;
71202;SDS011;58929;47.490;19.090;2023-08-30T13:30:23;6.68;;;2.15;;
71202;SDS011;58929;47.490;19.090;2023-08-30T13:32:51;3.33;;;2.20;;
71202;SDS011;58929;47.490;19.090;2023-08-30T13:35:19;5.85;;;2.75;;
71202;SDS011;58929;47.490;19.090;2023-08-30T13:37:48;2.05;;;1.85;;
71202;SDS011;58929;47.490;19.090;2023-08-30T13:40:16;5.10;;;2.65;;
71202;SDS011;58929;47.490;19.090;2023-08-30T13:42:44;5.25;;;2.03;;
71202;SDS011;58929;47.490;19.090;2023-08-30T13:45:12;2.55;;;1.65;;
71202;SDS011;58929;47.490;19.090;2023-08-30T13:47:42;2.90;;;2.00;;
71202;SDS011;58929;47.490;19.090;2023-08-30T13:50:11;2.75;;;2.00;;
71202;SDS011;58929;47.490;19.090;2023-08-30T13:52:39;3.55;;;2.25;;
71202;SDS011;58929;47.490;19.090;2023-08-30T13:55:07;4.50;;;1.70;;
71202;SDS011;58929;47.490;19.090;2023-08-30T13:57:35;2.22;;;1.77;;
71202;SDS011;58929;47.490;19.090;2023-08-30T14:00:04;1.77;;;1.55;;
71202;SDS011;58929;47.490;19.090;2023-08-30T14:02:36;3.42;;;2.17;;
71202;SDS011;58929;47.490;19.090;2023-08-30T14:05:06;1.75;;;1.33;;
71202;SDS011;58929;47.490;19.090;2023-08-30T14:07:34;3.15;;;1.92;;
71202;SDS011;58929;47.490;19.090;2023-08-30T14:10:02;3.28;;;2.10;;
71202;SDS011;58929;47.490;19.090;2023-08-30T14:12:30;2.13;;;1.70;;
71202;SDS011;58929;47.490;19.090;2023-08-30T14:15:00;4.00;;;1.75;;
71202;SDS011;58929;47.490;19.090;2023-08-30T14:17:28;2.53;;;1.75;;
71202;SDS011;58929;47.490;19.090;2023-08-30T14:19:56;3.20;;;2.33;;
71202;SDS011;58929;47.490;19.090;2023-08-30T14:22:25;2.88;;;2.00;;
71202;SDS011;58929;47.490;19.090;2023-08-30T14:24:53;5.55;;;2.72;;
71202;SDS011;58929;47.490;19.090;2023-08-30T14:27:37;2.08;;;1.88;;
71202;SDS011;58929;47.490;19.090;2023-08-30T14:30:06;3.05;;;2.33;;
71202;SDS011;58929;47.490;19.090;2023-08-30T14:32:34;3.33;;;2.10;;
71202;SDS011;58929;47.490;19.090;2023-08-30T14:35:02;2.95;;;2.20;;
71202;SDS011;58929;47.490;19.090;2023-08-30T14:37:32;2.90;;;2.03;;
71202;SDS011;58929;47.490;19.090;2023-08-30T14:40:02;5.28;;;2.83;;
71202;SDS011;58929;47.490;19.090;2023-08-30T14:42:31;3.42;;;2.78;;
71202;SDS011;58929;47.490;19.090;2023-08-30T14:44:59;3.30;;;2.63;;
71202;SDS011;58929;47.490;19.090;2023-08-30T14:47:29;4.90;;;2.33;;
71202;SDS011;58929;47.490;19.090;2023-08-30T14:49:57;4.47;;;2.25;;
71202;SDS011;58929;47.490;19.090;2023-08-30T14:52:25;2.22;;;1.65;;
71202;SDS011;58929;47.490;19.090;2023-08-30T14:54:55;2.40;;;1.77;;
71202;SDS011;58929;47.490;19.090;2023-08-30T14:57:23;3.75;;;2.25;;
71202;SDS011;58929;47.490;19.090;2023-08-30T14:59:53;6.50;;;2.92;;
71202;SDS011;58929;47.490;19.090;2023-08-30T15:02:21;5.45;;;2.05;;
71202;SDS011;58929;47.490;19.090;2023-08-30T15:04:49;4.20;;;2.30;;